This is the latest recevied weather packets stored in our database for station/object W8RD. If no packets are shown the sender has not sent any weather packets the latest 1 day(s).
| Time | Temp. | Humidity | Pressure | Rain* | Wind** | Luminosity | Snow |
|---|---|---|---|---|---|---|---|
| 1778096676 | 30.56° C | 68% | 1017.1 hPa | 0 mm | - | 701 W/m² | - |
| 1778094274 | 31.11° C | 65% | 1017.3 hPa | 0 mm | - | 777 W/m² | - |
| 1778093674 | 31.11° C | 64% | 1017.5 hPa | 0 mm | - | 838 W/m² | - |
| 1778093073 | 30.56° C | 67% | 1017.4 hPa | 0 mm | - | 825 W/m² | - |
| 1778090660 | 30.56° C | 66% | 1017.8 hPa | 0 mm | - | 887 W/m² | - |
| 1778090060 | 30.56° C | 66% | 1017.9 hPa | 0 mm | - | 883 W/m² | - |
| 1778088860 | 31.67° C | 64% | 1017.8 hPa | 0 mm | - | 192 W/m² | - |
| 1778087660 | 31.11° C | 62% | 1018.1 hPa | 0 mm | - | 910 W/m² | - |
| 1778087059 | 30.56° C | 64% | 1018 hPa | 0 mm | - | 867 W/m² | - |
| 1778085855 | 29.44° C | 68% | 1018.3 hPa | 0 mm | - | 243 W/m² | - |
| 1778084048 | 31.11° C | 55% | 1018.2 hPa | 0 mm | - | 139 W/m² | - |
| 1778082843 | 31.11° C | 57% | 1018.3 hPa | 0 mm | - | 115 W/m² | - |
| 1778081725 | 30° C | 59% | 1018.3 hPa | 0 mm | - | 109 W/m² | - |
| 1778081125 | 30° C | 61% | 1018.2 hPa | 0 mm | - | 94 W/m² | - |
| 1778078719 | 28.33° C | 65% | 1018.2 hPa | 0 mm | - | 72 W/m² | - |
| 1778078114 | 28.33° C | 67% | 1018.2 hPa | 0 mm | - | 71 W/m² | - |
| 1778075700 | 27.22° C | 72% | 1017.9 hPa | 0 mm | - | 53 W/m² | - |
| 1778075098 | 26.67° C | 74% | 1018 hPa | 0 mm | - | 101 W/m² | - |
| 1778073897 | 26.11° C | 77% | 1017.9 hPa | 0 mm | - | 53 W/m² | - |
| 1778073297 | 25.56° C | 79% | 1017.9 hPa | 0 mm | - | 43 W/m² | - |
| 1778072092 | 24.44° C | 82% | 1018 hPa | 0 mm | - | 33 W/m² | - |
| 1778071487 | 24.44° C | 83% | 1017.7 hPa | 0 mm | - | 37 W/m² | - |
| 1778069072 | 23.33° C | 87% | 1017.6 hPa | 0 mm | - | 25 W/m² | - |
| 1778065448 | 21.67° C | 90% | 1016.9 hPa | 0 mm | - | 6 W/m² | - |
| 1778060617 | 22.22° C | 86% | 1016.7 hPa | 0 mm | - | 0 W/m² | - |
* Rain latest hour (hover to see other rain measurements)
** Current wind speed in m/s (hover to see current wind gust speed)